createdAt,value
2018-04-30T00:01:13.619Z,0
2018-04-30T00:02:14.207Z,0
2018-04-30T00:03:14.785Z,0
2018-04-30T00:04:15.346Z,0
2018-04-30T00:05:15.895Z,0
2018-04-30T00:06:16.446Z,0
2018-04-30T00:07:16.990Z,0
2018-04-30T00:08:17.536Z,0
2018-04-30T00:09:18.085Z,0
2018-04-30T00:10:18.631Z,0
2018-04-30T00:11:24.218Z,0
2018-04-30T00:12:24.783Z,0
2018-04-30T00:13:25.346Z,0
2018-04-30T00:14:25.896Z,0
2018-04-30T00:15:26.459Z,0
2018-04-30T00:16:27.008Z,0
2018-04-30T00:17:27.565Z,0
2018-04-30T00:18:28.122Z,0
2018-04-30T00:19:28.676Z,0
2018-04-30T00:20:29.233Z,0
2018-04-30T00:21:29.809Z,0
2018-04-30T00:22:30.357Z,0
2018-04-30T00:23:30.912Z,0
2018-04-30T00:24:31.467Z,0
2018-04-30T00:25:32.023Z,0
2018-04-30T00:26:32.574Z,0
2018-04-30T00:27:33.125Z,0
2018-04-30T00:28:33.672Z,0
2018-04-30T00:29:34.229Z,0
2018-04-30T00:30:34.782Z,0
2018-04-30T00:31:35.339Z,0
2018-04-30T00:32:35.898Z,0
2018-04-30T00:33:36.466Z,0
2018-04-30T00:34:37.001Z,0
2018-04-30T00:35:37.557Z,0
2018-04-30T00:36:38.118Z,0
2018-04-30T00:37:38.677Z,0
2018-04-30T00:38:39.227Z,0
2018-04-30T00:39:39.779Z,0
2018-04-30T00:40:40.333Z,0
2018-04-30T00:41:40.890Z,0
2018-04-30T00:42:41.439Z,0
2018-04-30T00:43:41.993Z,0
2018-04-30T00:44:42.551Z,0
2018-04-30T00:45:43.169Z,0
2018-04-30T00:46:43.664Z,0
2018-04-30T00:47:44.216Z,0
2018-04-30T00:48:44.757Z,0
2018-04-30T00:49:45.311Z,0
2018-04-30T00:50:45.862Z,0
2018-04-30T00:51:46.417Z,0
2018-04-30T00:52:46.965Z,0
2018-04-30T00:53:47.519Z,0
2018-04-30T00:54:48.077Z,0
2018-04-30T00:55:48.631Z,0
2018-04-30T00:56:49.178Z,0
2018-04-30T00:57:49.729Z,0
2018-04-30T00:58:50.288Z,0
2018-04-30T00:59:50.831Z,0
2018-04-30T01:00:51.385Z,0
2018-04-30T01:01:51.940Z,0
2018-04-30T01:02:52.494Z,0
2018-04-30T01:03:53.045Z,0
2018-04-30T01:04:53.601Z,0
2018-04-30T01:05:54.153Z,0
2018-04-30T01:06:54.705Z,0
2018-04-30T01:07:55.261Z,0
2018-04-30T01:08:55.816Z,0
2018-04-30T01:09:56.370Z,0
2018-04-30T01:10:56.929Z,0
2018-04-30T01:11:57.483Z,0
2018-04-30T01:12:58.029Z,0
2018-04-30T01:13:58.580Z,0
2018-04-30T01:14:59.131Z,0
2018-04-30T01:15:59.675Z,0
2018-04-30T01:17:00.221Z,0
2018-04-30T01:18:00.775Z,0
2018-04-30T01:19:01.329Z,0
2018-04-30T01:20:01.883Z,0
2018-04-30T01:21:02.438Z,0
2018-04-30T01:22:02.980Z,0
2018-04-30T01:23:03.533Z,0
2018-04-30T01:24:04.081Z,0
2018-04-30T01:25:04.635Z,0
2018-04-30T01:26:05.188Z,0
2018-04-30T01:27:05.823Z,0
2018-04-30T01:28:06.293Z,0
2018-04-30T01:29:06.847Z,0
2018-04-30T01:30:07.391Z,0
2018-04-30T01:31:07.943Z,0
2018-04-30T01:32:08.492Z,0
2018-04-30T01:33:09.034Z,0
2018-04-30T01:34:09.589Z,0
2018-04-30T01:35:10.143Z,0
2018-04-30T01:36:10.695Z,0
2018-04-30T01:37:11.242Z,0
2018-04-30T01:38:11.787Z,0
2018-04-30T01:39:12.382Z,0
2018-04-30T01:40:12.939Z,0
2018-04-30T01:41:13.490Z,0
2018-04-30T01:42:14.049Z,0
2018-04-30T01:43:14.606Z,0
2018-04-30T01:44:15.157Z,0
2018-04-30T01:45:15.758Z,0
2018-04-30T01:46:16.266Z,0
2018-04-30T01:47:16.828Z,0
2018-04-30T01:48:17.374Z,0
2018-04-30T01:49:17.933Z,0
2018-04-30T01:50:18.478Z,0
2018-04-30T01:51:19.034Z,0
2018-04-30T01:52:19.588Z,0
2018-04-30T01:53:20.145Z,0
2018-04-30T01:54:20.702Z,0
2018-04-30T01:55:21.257Z,0
2018-04-30T01:56:21.796Z,0
2018-04-30T01:57:22.354Z,0
2018-04-30T01:58:22.900Z,0
2018-04-30T01:59:23.457Z,0
2018-04-30T02:00:24.011Z,0
2018-04-30T02:01:24.557Z,0
2018-04-30T02:02:25.109Z,0
2018-04-30T02:03:25.669Z,0
2018-04-30T02:04:26.225Z,0
2018-04-30T02:05:26.782Z,0
2018-04-30T02:06:27.324Z,0
2018-04-30T02:07:27.902Z,0
2018-04-30T02:08:28.432Z,0
2018-04-30T02:09:28.987Z,0
2018-04-30T02:10:29.541Z,0
2018-04-30T02:11:30.094Z,0
2018-04-30T02:12:30.639Z,0
2018-04-30T02:13:31.192Z,0
2018-04-30T02:14:31.753Z,0
2018-04-30T02:15:32.309Z,0
2018-04-30T02:16:32.856Z,0
2018-04-30T02:17:33.412Z,0
2018-04-30T02:18:33.959Z,0
2018-04-30T02:19:34.511Z,0
2018-04-30T02:20:35.065Z,0
2018-04-30T02:21:35.619Z,0
2018-04-30T02:22:36.177Z,0
2018-04-30T02:23:36.726Z,0
2018-04-30T02:24:37.276Z,0
2018-04-30T02:25:37.818Z,0
2018-04-30T02:26:38.379Z,0
2018-04-30T02:27:38.924Z,0
2018-04-30T02:28:39.482Z,0
2018-04-30T02:29:40.036Z,0
2018-04-30T02:30:40.582Z,0
2018-04-30T02:31:41.136Z,0
2018-04-30T02:32:41.690Z,0
2018-04-30T02:33:42.300Z,0
2018-04-30T02:34:42.789Z,0
2018-04-30T02:35:43.335Z,0
2018-04-30T02:36:43.895Z,0
2018-04-30T02:37:44.440Z,0
2018-04-30T02:38:44.997Z,0
2018-04-30T02:39:45.547Z,0
2018-04-30T02:40:46.106Z,0
2018-04-30T02:41:46.663Z,0
2018-04-30T02:42:47.215Z,0
2018-04-30T02:43:47.771Z,0
2018-04-30T02:44:48.325Z,0
2018-04-30T02:45:48.877Z,0
2018-04-30T02:46:49.423Z,0
2018-04-30T02:47:49.975Z,0
2018-04-30T02:48:50.529Z,0
2018-04-30T02:49:51.083Z,0
2018-04-30T02:50:51.640Z,0
2018-04-30T03:00:07.040Z,0
2018-04-30T03:01:12.611Z,0
2018-04-30T03:02:13.180Z,0
2018-04-30T03:03:13.736Z,0
2018-04-30T03:04:14.311Z,0
2018-04-30T03:05:14.865Z,0
2018-04-30T03:06:15.443Z,0
2018-04-30T03:07:16.014Z,0
2018-04-30T03:08:16.564Z,0
2018-04-30T03:09:17.125Z,0
2018-04-30T03:10:17.674Z,0
2018-04-30T03:11:18.231Z,0
2018-04-30T03:12:18.773Z,0
2018-04-30T03:13:19.320Z,0
2018-04-30T03:14:19.864Z,0
2018-04-30T03:15:20.414Z,0
2018-04-30T03:16:20.957Z,0
2018-04-30T03:17:21.516Z,0
2018-04-30T03:18:22.055Z,0
2018-04-30T03:19:22.614Z,0
2018-04-30T03:20:23.161Z,0
2018-04-30T03:21:23.724Z,0
2018-04-30T03:22:24.270Z,0
2018-04-30T03:23:24.825Z,0
2018-04-30T03:24:25.374Z,0
2018-04-30T03:25:25.917Z,0
2018-04-30T03:26:26.463Z,0
2018-04-30T03:27:27.004Z,0
2018-04-30T03:28:27.555Z,0
2018-04-30T03:29:28.105Z,0
2018-04-30T03:30:28.650Z,0
2018-04-30T03:31:29.199Z,0
2018-04-30T03:32:29.806Z,0
2018-04-30T03:33:30.297Z,0
2018-04-30T03:34:30.861Z,0
2018-04-30T03:35:31.390Z,0
2018-04-30T03:36:31.940Z,0
2018-04-30T03:37:32.491Z,0
2018-04-30T03:38:33.034Z,0
2018-04-30T03:39:33.571Z,0
2018-04-30T03:40:34.120Z,0
2018-04-30T03:41:34.667Z,0
2018-04-30T03:42:35.215Z,0
2018-04-30T03:43:35.762Z,4
2018-04-30T03:44:36.315Z,4
2018-04-30T03:45:36.858Z,4
2018-04-30T03:46:37.400Z,4
2018-04-30T03:47:37.951Z,4
2018-04-30T03:48:38.506Z,4
2018-04-30T03:49:39.052Z,8
2018-04-30T03:50:39.593Z,4
2018-04-30T03:51:40.145Z,4
2018-04-30T03:52:40.695Z,4
2018-04-30T03:53:41.243Z,4
2018-04-30T03:54:41.789Z,4
2018-04-30T03:55:42.338Z,8
2018-04-30T03:56:42.886Z,4
2018-04-30T03:57:43.437Z,8
2018-04-30T03:58:43.982Z,12
2018-04-30T03:59:44.538Z,12
2018-04-30T04:00:45.086Z,16
2018-04-30T04:01:45.633Z,16
2018-04-30T04:02:46.183Z,8
2018-04-30T04:03:46.733Z,12
2018-04-30T04:04:47.276Z,12
2018-04-30T04:05:47.824Z,16
2018-04-30T04:06:48.374Z,24
2018-04-30T04:07:48.921Z,28
2018-04-30T04:08:49.462Z,36
2018-04-30T04:09:50.007Z,40
2018-04-30T04:10:50.556Z,40
2018-04-30T04:11:51.111Z,36
2018-04-30T04:12:51.660Z,36
2018-04-30T04:13:52.211Z,40
2018-04-30T04:14:52.757Z,48
2018-04-30T04:15:53.307Z,56
2018-04-30T04:16:53.856Z,68
2018-04-30T04:17:54.403Z,96
2018-04-30T04:18:54.947Z,116
2018-04-30T04:19:55.492Z,132
2018-04-30T04:20:56.044Z,152
2018-04-30T04:21:56.592Z,176
2018-04-30T04:22:57.142Z,200
2018-04-30T04:23:57.690Z,212
2018-04-30T04:24:58.239Z,212
2018-04-30T04:25:58.789Z,208
2018-04-30T04:26:59.342Z,204
2018-04-30T04:27:59.882Z,208
2018-04-30T04:29:00.431Z,224
2018-04-30T04:30:00.981Z,244
2018-04-30T04:31:01.525Z,264
2018-04-30T04:32:02.070Z,276
2018-04-30T04:33:02.625Z,292
2018-04-30T04:34:03.167Z,320
2018-04-30T04:35:03.725Z,364
2018-04-30T04:36:04.274Z,412
2018-04-30T04:37:04.828Z,444
2018-04-30T04:38:05.380Z,456
2018-04-30T04:39:05.931Z,452
2018-04-30T04:40:06.484Z,444
2018-04-30T04:41:07.027Z,448
2018-04-30T04:42:07.585Z,464
2018-04-30T04:43:08.130Z,516
2018-04-30T04:44:08.681Z,596
2018-04-30T04:45:09.228Z,716
2018-04-30T04:46:09.786Z,844
2018-04-30T04:47:10.332Z,944
2018-04-30T04:48:10.888Z,1000
2018-04-30T04:49:11.428Z,1008
2018-04-30T04:50:11.984Z,1016
2018-04-30T04:51:12.536Z,1012
2018-04-30T04:52:13.090Z,1012
2018-04-30T04:53:13.634Z,976
2018-04-30T04:54:14.186Z,988
2018-04-30T04:55:14.734Z,1044
2018-04-30T04:56:15.287Z,1124
2018-04-30T04:57:15.842Z,1204
2018-04-30T04:58:16.400Z,1240
2018-04-30T04:59:16.951Z,1264
2018-04-30T05:00:17.502Z,1312
2018-04-30T05:01:18.045Z,1372
2018-04-30T05:02:18.684Z,1400
2018-04-30T05:03:19.147Z,1392
2018-04-30T05:04:19.701Z,1400
2018-04-30T05:05:20.256Z,1452
2018-04-30T05:06:20.804Z,1508
2018-04-30T05:07:21.355Z,1532
2018-04-30T05:08:21.907Z,1560
2018-04-30T05:09:22.461Z,1632
2018-04-30T05:10:23.016Z,1692
2018-04-30T05:11:23.571Z,1716
2018-04-30T05:12:24.118Z,1716
2018-04-30T05:13:24.669Z,1816
2018-04-30T05:14:25.221Z,2104
2018-04-30T05:15:25.771Z,2332
2018-04-30T05:16:26.325Z,2380
2018-04-30T05:17:26.877Z,2328
2018-04-30T05:18:27.425Z,2288
2018-04-30T05:19:27.976Z,2268
2018-04-30T05:20:28.528Z,2260
2018-04-30T05:21:29.086Z,2300
2018-04-30T05:22:29.635Z,2376
2018-04-30T05:23:30.184Z,2376
2018-04-30T05:24:30.739Z,2340
2018-04-30T05:25:31.288Z,2308
2018-04-30T05:26:31.828Z,2236
2018-04-30T05:27:32.382Z,2120
2018-04-30T05:28:32.929Z,2072
2018-04-30T05:29:33.485Z,2064
2018-04-30T05:30:34.046Z,2004
2018-04-30T05:31:34.589Z,1964
2018-04-30T05:32:35.147Z,1892
2018-04-30T05:33:35.699Z,1912
2018-04-30T05:34:36.245Z,2016
2018-04-30T05:35:36.798Z,2128
2018-04-30T05:36:37.353Z,2236
2018-04-30T05:37:37.904Z,2320
2018-04-30T05:38:38.456Z,2416
2018-04-30T05:39:39.005Z,2596
2018-04-30T05:40:39.561Z,2892
2018-04-30T05:41:40.111Z,3088
2018-04-30T05:42:40.668Z,3264
2018-04-30T05:43:41.220Z,3560
2018-04-30T05:44:41.775Z,3836
2018-04-30T05:45:42.322Z,3984
2018-04-30T05:46:42.872Z,4248
2018-04-30T05:47:43.425Z,4668
2018-04-30T05:48:43.976Z,5332
2018-04-30T05:49:44.535Z,5596
2018-04-30T05:50:45.081Z,5564
2018-04-30T05:51:45.630Z,5700
2018-04-30T05:52:46.185Z,5848
2018-04-30T05:53:46.788Z,5840
2018-04-30T05:54:47.338Z,5732
2018-04-30T05:55:47.893Z,5660
2018-04-30T05:56:48.448Z,5428
2018-04-30T05:57:48.993Z,5492
2018-04-30T05:58:49.540Z,6360
2018-04-30T05:59:50.094Z,7096
2018-04-30T06:00:50.649Z,7396
2018-04-30T06:01:51.203Z,7768
2018-04-30T06:02:51.751Z,8516
2018-04-30T06:03:52.306Z,9312
2018-04-30T06:04:52.857Z,9664
2018-04-30T06:05:53.404Z,9812
2018-04-30T06:06:53.982Z,8776
2018-04-30T06:07:54.504Z,7536
2018-04-30T06:08:55.053Z,6576
2018-04-30T06:09:55.609Z,5956
2018-04-30T06:10:56.158Z,5088
2018-04-30T06:11:56.710Z,4040
2018-04-30T06:12:57.266Z,3280
2018-04-30T06:13:57.823Z,3188
2018-04-30T06:14:58.373Z,2872
2018-04-30T06:15:58.925Z,2880
2018-04-30T06:16:59.479Z,2596
2018-04-30T06:18:00.111Z,2404
2018-04-30T06:19:00.575Z,2236
2018-04-30T06:20:01.128Z,1964
2018-04-30T06:21:01.681Z,1820
2018-04-30T06:22:02.230Z,1716
2018-04-30T06:23:02.787Z,1768
2018-04-30T06:24:03.332Z,2024
2018-04-30T06:25:03.880Z,2324
2018-04-30T06:26:04.432Z,2528
2018-04-30T06:27:04.996Z,2608
2018-04-30T06:28:05.543Z,2596
2018-04-30T06:29:06.091Z,2656
2018-04-30T06:30:06.651Z,2764
2018-04-30T06:31:07.198Z,3100
2018-04-30T06:32:07.752Z,3408
2018-04-30T06:33:08.307Z,3764
2018-04-30T06:34:08.859Z,4268
2018-04-30T06:35:09.409Z,4960
2018-04-30T06:36:09.964Z,5248
2018-04-30T06:37:10.520Z,5124
2018-04-30T06:38:11.073Z,5128
2018-04-30T06:39:11.622Z,5408
2018-04-30T06:40:12.175Z,5656
2018-04-30T06:41:12.725Z,5640
2018-04-30T06:42:13.274Z,5580
2018-04-30T06:43:13.829Z,7048
2018-04-30T06:44:14.387Z,8664
2018-04-30T06:45:14.943Z,10008
2018-04-30T06:46:15.502Z,10104
2018-04-30T06:47:16.058Z,9668
2018-04-30T06:48:16.608Z,9476
2018-04-30T06:49:17.154Z,9612
2018-04-30T06:50:17.714Z,10360
2018-04-30T06:51:18.271Z,11208
2018-04-30T06:52:18.826Z,11812
2018-04-30T06:53:19.381Z,11568
2018-04-30T06:54:19.934Z,10916
2018-04-30T06:55:20.486Z,10256
2018-04-30T06:56:21.037Z,10908
2018-04-30T06:57:21.592Z,12156
2018-04-30T06:58:22.144Z,13532
2018-04-30T06:59:22.693Z,14508
2018-04-30T07:00:23.338Z,14628
2018-04-30T07:01:23.796Z,14992
2018-04-30T07:02:24.346Z,15308
2018-04-30T07:03:24.903Z,15060
2018-04-30T07:04:25.458Z,14992
2018-04-30T07:05:26.009Z,15492
2018-04-30T07:06:26.563Z,15224
2018-04-30T07:07:27.117Z,14516
2018-04-30T07:08:27.675Z,13484
2018-04-30T07:09:28.271Z,13420
2018-04-30T07:10:28.778Z,15540
2018-04-30T07:11:29.329Z,17360
2018-04-30T07:12:29.881Z,18008
2018-04-30T07:13:30.434Z,18236
2018-04-30T07:14:30.993Z,18424
2018-04-30T07:15:31.547Z,18500
2018-04-30T07:16:32.101Z,17312
2018-04-30T07:17:32.674Z,14836
2018-04-30T07:18:33.222Z,14188
2018-04-30T07:19:33.777Z,14356
2018-04-30T07:20:34.323Z,15068
2018-04-30T07:21:34.885Z,16684
2018-04-30T07:22:35.439Z,14300
2018-04-30T07:23:35.995Z,12192
2018-04-30T07:24:36.545Z,12152
2018-04-30T07:25:37.109Z,11484
2018-04-30T07:26:37.663Z,11128
2018-04-30T07:27:38.289Z,11364
2018-04-30T07:28:38.766Z,13536
2018-04-30T07:29:39.329Z,14132
2018-04-30T07:30:39.881Z,14444
2018-04-30T07:31:40.432Z,15332
2018-04-30T07:32:40.992Z,15768
2018-04-30T07:33:41.549Z,13552
2018-04-30T07:34:42.099Z,10820
2018-04-30T07:35:42.649Z,11808
2018-04-30T07:36:43.205Z,14000
2018-04-30T07:37:43.763Z,14484
2018-04-30T07:38:44.313Z,13608
2018-04-30T07:39:44.863Z,12960
2018-04-30T07:40:45.414Z,12688
2018-04-30T07:41:45.970Z,11952
2018-04-30T07:42:46.523Z,12088
2018-04-30T07:43:47.079Z,12356
2018-04-30T07:44:47.633Z,11532
2018-04-30T07:45:48.182Z,10156
2018-04-30T07:46:48.738Z,8976
2018-04-30T07:47:49.288Z,9520
2018-04-30T07:48:49.836Z,10308
2018-04-30T07:49:50.393Z,10360
2018-04-30T07:50:50.943Z,9968
2018-04-30T07:51:51.501Z,8760
2018-04-30T07:52:52.056Z,9156
2018-04-30T07:53:52.616Z,10028
2018-04-30T07:54:53.169Z,9868
2018-04-30T07:55:53.724Z,8212
2018-04-30T07:56:54.274Z,9432
2018-04-30T07:57:54.826Z,10336
2018-04-30T07:58:55.382Z,11028
2018-04-30T07:59:55.936Z,11508
2018-04-30T08:00:56.483Z,11000
2018-04-30T08:01:57.034Z,11636
2018-04-30T08:02:57.621Z,12404
2018-04-30T08:03:58.166Z,12548
2018-04-30T08:04:58.725Z,12700
2018-04-30T08:05:59.279Z,13352
2018-04-30T08:06:59.838Z,12648
2018-04-30T08:08:00.400Z,12348
2018-04-30T08:09:00.968Z,11684
2018-04-30T08:10:01.511Z,12036
2018-04-30T08:11:02.069Z,12064
2018-04-30T08:12:02.667Z,12088
2018-04-30T08:13:03.184Z,11888
2018-04-30T08:14:03.814Z,11752
2018-04-30T08:15:04.307Z,11812
2018-04-30T08:16:04.864Z,11824
2018-04-30T08:17:05.419Z,11752
2018-04-30T08:18:05.982Z,11644
2018-04-30T08:19:06.542Z,11572
2018-04-30T08:20:07.093Z,11656
2018-04-30T08:21:07.650Z,11916
2018-04-30T08:22:08.205Z,12164
2018-04-30T08:23:08.767Z,11908
2018-04-30T08:24:09.321Z,11296
2018-04-30T08:25:09.881Z,10460
2018-04-30T08:26:10.443Z,9712
2018-04-30T08:27:10.992Z,9452
2018-04-30T08:28:11.549Z,9788
2018-04-30T08:29:12.104Z,10248
2018-04-30T08:30:12.652Z,10944
2018-04-30T08:31:13.209Z,11080
2018-04-30T08:32:13.758Z,10252
2018-04-30T08:33:14.308Z,8736
2018-04-30T08:34:14.864Z,7760
2018-04-30T08:35:15.421Z,8920
2018-04-30T08:36:15.973Z,11656
2018-04-30T08:37:16.524Z,13232
2018-04-30T08:38:17.082Z,13800
2018-04-30T08:39:17.634Z,14320
2018-04-30T08:40:18.190Z,15284
2018-04-30T08:41:18.746Z,16332
2018-04-30T08:42:19.297Z,17528
2018-04-30T08:43:19.847Z,19168
2018-04-30T08:44:20.408Z,20640
2018-04-30T08:45:20.975Z,21568
2018-04-30T08:46:21.531Z,21888
2018-04-30T08:47:22.088Z,21440
2018-04-30T08:48:22.640Z,20576
2018-04-30T08:49:23.204Z,20000
2018-04-30T08:50:23.773Z,19872
2018-04-30T08:51:24.325Z,19776
2018-04-30T08:52:24.879Z,19328
2018-04-30T08:53:25.431Z,17880
2018-04-30T08:54:25.988Z,15036
2018-04-30T08:55:26.547Z,12680
2018-04-30T08:56:27.105Z,13884
2018-04-30T08:57:27.657Z,15608
2018-04-30T08:58:28.209Z,15124
2018-04-30T08:59:28.768Z,14540
2018-04-30T09:00:29.421Z,14268
2018-04-30T09:01:29.872Z,15056
2018-04-30T09:02:30.429Z,16680
2018-04-30T09:03:30.982Z,19200
2018-04-30T09:04:31.542Z,22048
2018-04-30T09:05:32.096Z,24640
2018-04-30T09:06:32.651Z,25696
2018-04-30T09:07:33.210Z,25728
2018-04-30T09:08:33.769Z,25440
2018-04-30T09:09:34.399Z,27744
2018-04-30T09:10:34.889Z,30336
2018-04-30T09:11:35.446Z,29856
2018-04-30T09:12:36.015Z,28480
2018-04-30T09:13:36.585Z,26048
2018-04-30T09:14:37.142Z,26528
2018-04-30T09:15:37.694Z,30176
2018-04-30T09:16:38.288Z,37984
2018-04-30T09:17:38.838Z,48640
2018-04-30T09:18:39.399Z,54464
2018-04-30T09:19:39.958Z,55296
2018-04-30T09:20:40.515Z,49792
2018-04-30T09:21:41.075Z,41568
2018-04-30T09:22:41.634Z,36288
2018-04-30T09:23:42.198Z,27904
2018-04-30T09:24:42.756Z,25632
2018-04-30T09:25:43.310Z,22912
2018-04-30T09:26:43.871Z,15648
2018-04-30T09:27:44.432Z,11016
2018-04-30T09:28:44.990Z,10404
2018-04-30T09:29:45.550Z,14080
2018-04-30T09:30:46.127Z,17756
2018-04-30T09:31:46.663Z,17108
2018-04-30T09:32:47.219Z,17480
2018-04-30T09:33:47.774Z,29024
2018-04-30T09:34:48.333Z,29152
2018-04-30T09:35:48.887Z,28800
2018-04-30T09:36:49.445Z,27776
2018-04-30T09:37:50.008Z,24704
2018-04-30T09:38:50.564Z,23360
2018-04-30T09:39:51.124Z,20704
2018-04-30T09:40:51.676Z,17600
2018-04-30T09:41:52.226Z,16516
2018-04-30T09:42:52.796Z,16800
2018-04-30T09:43:53.344Z,16548
2018-04-30T09:44:53.903Z,16852
2018-04-30T09:45:54.480Z,18488
2018-04-30T09:46:55.021Z,17336
2018-04-30T09:47:55.574Z,15400
2018-04-30T09:48:56.128Z,15236
2018-04-30T09:49:56.691Z,14948
2018-04-30T09:50:57.248Z,13272
2018-04-30T09:51:57.806Z,12140
2018-04-30T09:52:58.365Z,11584
2018-04-30T09:53:58.925Z,11352
2018-04-30T09:54:59.482Z,10564
2018-04-30T09:56:00.045Z,10528
2018-04-30T09:57:00.600Z,11820
2018-04-30T09:58:01.198Z,13108
2018-04-30T09:59:01.723Z,13936
2018-04-30T10:00:02.291Z,14452
2018-04-30T10:01:02.855Z,14844
2018-04-30T10:02:03.418Z,14204
2018-04-30T10:03:03.972Z,12676
2018-04-30T10:04:04.545Z,11432
2018-04-30T10:05:05.110Z,11116
2018-04-30T10:06:05.688Z,11464
2018-04-30T10:07:06.258Z,12504
2018-04-30T10:08:06.811Z,14184
2018-04-30T10:09:07.379Z,15932
2018-04-30T10:10:07.948Z,19136
2018-04-30T10:11:08.525Z,21760
2018-04-30T10:12:09.086Z,21504
2018-04-30T10:13:09.645Z,20576
2018-04-30T10:14:10.210Z,19136
2018-04-30T10:15:10.770Z,15544
2018-04-30T10:16:11.326Z,13392
2018-04-30T10:17:11.888Z,13388
2018-04-30T10:18:12.447Z,13228
2018-04-30T10:19:13.015Z,11388
2018-04-30T10:20:13.572Z,11600
2018-04-30T10:21:14.134Z,11752
2018-04-30T10:22:14.697Z,11360
2018-04-30T10:23:15.250Z,10100
2018-04-30T10:24:15.810Z,9396
2018-04-30T10:25:16.363Z,9248
2018-04-30T10:26:16.919Z,9272
2018-04-30T10:27:17.470Z,8976
2018-04-30T10:28:18.021Z,8076
2018-04-30T10:29:18.576Z,7292
2018-04-30T10:30:19.136Z,7800
2018-04-30T10:31:19.690Z,10340
2018-04-30T10:32:20.241Z,13200
2018-04-30T10:33:20.801Z,17264
2018-04-30T10:34:21.368Z,17412
2018-04-30T10:35:21.930Z,16656
2018-04-30T10:36:22.487Z,17152
2018-04-30T10:37:23.039Z,17280
2018-04-30T10:38:23.599Z,16384
2018-04-30T10:39:24.157Z,17292
2018-04-30T10:40:24.715Z,18444
2018-04-30T10:41:25.276Z,22176
2018-04-30T10:42:25.833Z,25248
2018-04-30T10:43:26.393Z,27712
2018-04-30T10:44:26.950Z,30400
2018-04-30T10:45:27.517Z,29824
2018-04-30T10:46:28.078Z,26720
2018-04-30T10:47:28.640Z,24096
2018-04-30T10:48:29.199Z,24544
2018-04-30T10:49:29.756Z,25760
2018-04-30T10:50:30.312Z,24640
2018-04-30T10:51:30.881Z,22848
2018-04-30T10:52:31.430Z,22048
2018-04-30T10:53:31.998Z,20416
2018-04-30T10:54:32.558Z,19776
2018-04-30T10:55:33.115Z,20256
2018-04-30T10:56:33.676Z,20608
2018-04-30T10:57:34.236Z,20704
2018-04-30T10:58:34.801Z,20832
2018-04-30T10:59:35.407Z,22656
2018-04-30T11:00:35.934Z,30304
2018-04-30T11:01:36.496Z,52096
2018-04-30T11:02:37.069Z,61792
2018-04-30T11:03:37.615Z,66048
2018-04-30T11:04:38.174Z,44192
2018-04-30T11:05:38.738Z,57856
2018-04-30T11:06:39.300Z,50112
2018-04-30T11:07:39.863Z,50176
2018-04-30T11:08:40.435Z,41472
2018-04-30T11:09:40.993Z,31936
2018-04-30T11:10:41.550Z,27968
2018-04-30T11:11:42.113Z,27936
2018-04-30T11:12:42.672Z,28768
2018-04-30T11:13:43.234Z,30688
2018-04-30T11:14:43.793Z,37760
2018-04-30T11:15:44.356Z,68448
2018-04-30T11:16:44.906Z,68288
2018-04-30T11:17:45.473Z,101568
2018-04-30T11:18:46.028Z,72896
2018-04-30T11:19:46.591Z,115104
2018-04-30T11:20:47.153Z,81184
2018-04-30T11:21:47.724Z,41664
2018-04-30T11:22:48.288Z,51424
2018-04-30T11:23:48.865Z,60768
2018-04-30T11:24:49.424Z,36960
2018-04-30T11:25:49.990Z,84768
2018-04-30T11:26:50.554Z,42432
2018-04-30T11:27:51.131Z,28768
2018-04-30T11:28:51.687Z,25024
2018-04-30T11:29:52.260Z,23104
2018-04-30T11:30:52.825Z,22048
2018-04-30T11:31:53.392Z,25440
2018-04-30T11:32:53.957Z,34368
2018-04-30T11:33:54.517Z,36576
2018-04-30T11:34:55.084Z,31264
2018-04-30T11:35:55.636Z,27424
2018-04-30T11:36:56.203Z,30208
2018-04-30T11:37:56.761Z,37408
2018-04-30T11:38:57.318Z,38432
2018-04-30T11:39:57.965Z,29856
2018-04-30T11:40:58.430Z,25952
2018-04-30T11:41:58.983Z,27392
2018-04-30T11:42:59.535Z,29504
2018-04-30T11:44:00.095Z,33440
2018-04-30T11:45:00.654Z,44480
2018-04-30T11:46:01.216Z,51360
2018-04-30T11:47:01.787Z,47712
2018-04-30T11:48:02.328Z,38144
2018-04-30T11:49:02.879Z,32576
2018-04-30T11:50:03.431Z,33920
2018-04-30T11:51:03.986Z,42240
2018-04-30T11:52:04.548Z,52480
2018-04-30T11:53:05.102Z,52992
2018-04-30T11:54:05.653Z,63232
2018-04-30T11:55:06.213Z,43072
2018-04-30T11:56:06.775Z,112864
2018-04-30T11:57:07.342Z,124864
2018-04-30T11:58:07.902Z,25248
2018-04-30T11:59:08.470Z,21600
2018-04-30T12:00:09.025Z,25088
2018-04-30T12:01:09.579Z,22304
2018-04-30T12:02:10.137Z,16380
2018-04-30T12:03:10.691Z,13376
2018-04-30T12:04:11.251Z,11228
2018-04-30T12:05:11.808Z,9648
2018-04-30T12:06:12.368Z,7968
2018-04-30T12:07:12.934Z,6956
2018-04-30T12:08:13.491Z,6392
2018-04-30T12:09:14.054Z,6604
2018-04-30T12:10:14.609Z,7496
2018-04-30T12:11:15.176Z,8584
2018-04-30T12:12:15.731Z,11264
2018-04-30T12:13:16.290Z,14968
2018-04-30T12:14:16.839Z,19776
2018-04-30T12:15:17.396Z,23776
2018-04-30T12:16:17.954Z,24288
2018-04-30T12:17:18.509Z,27904
2018-04-30T12:18:19.075Z,39904
2018-04-30T12:19:19.632Z,43040
2018-04-30T12:20:20.187Z,44864
2018-04-30T12:21:20.743Z,67552
2018-04-30T12:22:21.299Z,49824
2018-04-30T12:23:21.856Z,39648
2018-04-30T12:24:22.422Z,42176
2018-04-30T12:25:22.979Z,60224
2018-04-30T12:26:23.544Z,136640
2018-04-30T12:27:24.103Z,43456
2018-04-30T12:28:24.657Z,41056
2018-04-30T12:29:25.216Z,41856
2018-04-30T12:30:25.773Z,51840
2018-04-30T12:31:26.334Z,90752
2018-04-30T12:32:26.897Z,32640
2018-04-30T12:33:27.483Z,19200
2018-04-30T12:34:28.032Z,13756
2018-04-30T12:35:28.597Z,13036
2018-04-30T12:36:29.157Z,13344
2018-04-30T12:37:29.721Z,13720
2018-04-30T12:38:30.280Z,15320
2018-04-30T12:39:30.833Z,17424
2018-04-30T12:40:31.398Z,18052
2018-04-30T12:41:31.958Z,17016
2018-04-30T12:42:32.511Z,19104
2018-04-30T12:43:33.067Z,33120
2018-04-30T12:44:33.627Z,69952
2018-04-30T12:45:34.186Z,80096
2018-04-30T12:46:34.747Z,67648
2018-04-30T12:47:35.307Z,55808
2018-04-30T12:48:35.876Z,125696
2018-04-30T12:49:36.515Z,84960
2018-04-30T12:50:36.999Z,64224
2018-04-30T12:51:37.561Z,54400
2018-04-30T12:52:38.119Z,55104
2018-04-30T12:53:38.684Z,43168
2018-04-30T12:54:39.469Z,34080
2018-04-30T12:55:40.037Z,40416
2018-04-30T12:56:40.601Z,46912
2018-04-30T12:57:41.173Z,45472
2018-04-30T12:58:41.737Z,72992
2018-04-30T12:59:42.319Z,58464
2018-04-30T13:00:42.889Z,49888
2018-04-30T13:01:43.452Z,47360
2018-04-30T13:02:44.025Z,44608
2018-04-30T13:03:44.588Z,38336
2018-04-30T13:04:45.151Z,33504
2018-04-30T13:05:45.716Z,28800
2018-04-30T13:06:46.286Z,26400
2018-04-30T13:07:46.849Z,25248
2018-04-30T13:08:47.436Z,23712
2018-04-30T13:09:47.983Z,25344
2018-04-30T13:10:48.581Z,26496
2018-04-30T13:11:49.114Z,27296
2018-04-30T13:12:49.682Z,27808
2018-04-30T13:13:50.241Z,28160
2018-04-30T13:14:50.806Z,28256
2018-04-30T13:15:51.374Z,28000
2018-04-30T13:16:51.942Z,27616
2018-04-30T13:17:52.507Z,27392
2018-04-30T13:18:53.073Z,27232
2018-04-30T13:19:53.636Z,27232
2018-04-30T13:20:54.208Z,27392
2018-04-30T13:21:54.768Z,27552
2018-04-30T13:22:55.327Z,27744
2018-04-30T13:23:55.879Z,28064
2018-04-30T13:24:56.441Z,28448
2018-04-30T13:25:56.999Z,29056
2018-04-30T13:26:57.560Z,30080
2018-04-30T13:27:58.122Z,31104
2018-04-30T13:28:58.697Z,32384
2018-04-30T13:29:59.258Z,35552
2018-04-30T13:30:59.810Z,39264
2018-04-30T13:32:00.416Z,39200
2018-04-30T13:33:00.963Z,40864
2018-04-30T13:34:01.542Z,41856
2018-04-30T13:35:02.097Z,39264
2018-04-30T13:36:02.653Z,34880
2018-04-30T13:37:03.222Z,31488
2018-04-30T13:38:03.772Z,33696
2018-04-30T13:39:04.331Z,31968
2018-04-30T13:40:04.893Z,32032
2018-04-30T13:41:05.455Z,34816
2018-04-30T13:42:06.008Z,34048
2018-04-30T13:43:06.571Z,33120
2018-04-30T13:44:07.127Z,31712
2018-04-30T13:45:07.678Z,28768
2018-04-30T13:46:08.236Z,26048
2018-04-30T13:47:08.796Z,26144